sensor_id;sensor_type;location;lat;lon;timestamp;temperature;humidity
15717;DHT22;7960;50.908;4.204;2023-02-26T00:01:17;1.90;99.90
15717;DHT22;7960;50.908;4.204;2023-02-26T00:03:47;2.00;99.90
15717;DHT22;7960;50.908;4.204;2023-02-26T00:06:14;2.00;99.90
15717;DHT22;7960;50.908;4.204;2023-02-26T00:08:41;2.00;99.90
15717;DHT22;7960;50.908;4.204;2023-02-26T00:11:09;2.10;99.90
15717;DHT22;7960;50.908;4.204;2023-02-26T00:13:39;2.10;99.90
15717;DHT22;7960;50.908;4.204;2023-02-26T00:16:13;2.00;99.90
15717;DHT22;7960;50.908;4.204;2023-02-26T00:18:43;2.00;99.90
15717;DHT22;7960;50.908;4.204;2023-02-26T00:21:15;2.00;99.90
15717;DHT22;7960;50.908;4.204;2023-02-26T00:23:43;2.00;99.90
15717;DHT22;7960;50.908;4.204;2023-02-26T00:26:10;2.00;99.90
15717;DHT22;7960;50.908;4.204;2023-02-26T00:28:39;1.90;99.90
15717;DHT22;7960;50.908;4.204;2023-02-26T00:31:06;2.00;99.90
15717;DHT22;7960;50.908;4.204;2023-02-26T00:33:34;2.00;99.90
15717;DHT22;7960;50.908;4.204;2023-02-26T00:36:12;2.00;99.90
15717;DHT22;7960;50.908;4.204;2023-02-26T00:38:42;2.00;99.90
15717;DHT22;7960;50.908;4.204;2023-02-26T00:41:12;2.00;99.90
15717;DHT22;7960;50.908;4.204;2023-02-26T00:43:42;2.00;99.90
15717;DHT22;7960;50.908;4.204;2023-02-26T00:46:17;1.90;99.90
15717;DHT22;7960;50.908;4.204;2023-02-26T00:48:52;1.90;99.90
15717;DHT22;7960;50.908;4.204;2023-02-26T00:51:27;2.10;99.90
15717;DHT22;7960;50.908;4.204;2023-02-26T00:53:59;2.00;99.90
15717;DHT22;7960;50.908;4.204;2023-02-26T00:56:30;1.90;99.90
15717;DHT22;7960;50.908;4.204;2023-02-26T00:58:58;2.00;99.90
15717;DHT22;7960;50.908;4.204;2023-02-26T01:01:25;2.00;99.90
15717;DHT22;7960;50.908;4.204;2023-02-26T01:03:52;1.90;99.90
15717;DHT22;7960;50.908;4.204;2023-02-26T01:06:20;1.80;99.90
15717;DHT22;7960;50.908;4.204;2023-02-26T01:08:54;1.80;99.90
15717;DHT22;7960;50.908;4.204;2023-02-26T01:11:24;1.80;99.90
15717;DHT22;7960;50.908;4.204;2023-02-26T01:13:51;1.60;99.90
15717;DHT22;7960;50.908;4.204;2023-02-26T01:16:23;1.50;99.90
15717;DHT22;7960;50.908;4.204;2023-02-26T01:18:55;1.50;99.90
15717;DHT22;7960;50.908;4.204;2023-02-26T01:21:28;1.40;99.90
15717;DHT22;7960;50.908;4.204;2023-02-26T01:23:56;1.40;99.90
15717;DHT22;7960;50.908;4.204;2023-02-26T01:26:26;1.50;99.90
15717;DHT22;7960;50.908;4.204;2023-02-26T01:28:54;1.50;99.90
15717;DHT22;7960;50.908;4.204;2023-02-26T01:31:33;1.40;99.90
15717;DHT22;7960;50.908;4.204;2023-02-26T01:34:07;1.50;99.90
15717;DHT22;7960;50.908;4.204;2023-02-26T01:36:41;1.50;99.90
15717;DHT22;7960;50.908;4.204;2023-02-26T01:39:15;1.40;99.90
15717;DHT22;7960;50.908;4.204;2023-02-26T01:41:47;1.50;99.90
15717;DHT22;7960;50.908;4.204;2023-02-26T01:44:21;1.50;99.90
15717;DHT22;7960;50.908;4.204;2023-02-26T01:47:09;1.50;99.90
15717;DHT22;7960;50.908;4.204;2023-02-26T01:49:38;1.40;99.90
15717;DHT22;7960;50.908;4.204;2023-02-26T01:53:17;1.30;99.90
15717;DHT22;7960;50.908;4.204;2023-02-26T01:54:53;1.30;99.90
15717;DHT22;7960;50.908;4.204;2023-02-26T01:57:20;1.30;99.90
15717;DHT22;7960;50.908;4.204;2023-02-26T01:59:49;1.30;99.90
15717;DHT22;7960;50.908;4.204;2023-02-26T02:02:21;1.30;99.90
15717;DHT22;7960;50.908;4.204;2023-02-26T02:04:48;1.30;99.90
15717;DHT22;7960;50.908;4.204;2023-02-26T02:07:16;1.30;99.90
15717;DHT22;7960;50.908;4.204;2023-02-26T02:09:43;1.30;99.90
15717;DHT22;7960;50.908;4.204;2023-02-26T02:12:25;1.30;99.90
15717;DHT22;7960;50.908;4.204;2023-02-26T02:15:04;1.40;99.90
15717;DHT22;7960;50.908;4.204;2023-02-26T02:17:40;1.50;99.90
15717;DHT22;7960;50.908;4.204;2023-02-26T02:20:26;1.40;99.90
15717;DHT22;7960;50.908;4.204;2023-02-26T02:23:05;1.30;99.90
15717;DHT22;7960;50.908;4.204;2023-02-26T02:25:54;1.30;99.90
15717;DHT22;7960;50.908;4.204;2023-02-26T02:28:34;1.40;99.90
15717;DHT22;7960;50.908;4.204;2023-02-26T02:31:07;1.10;99.90
15717;DHT22;7960;50.908;4.204;2023-02-26T02:33:41;1.00;99.90
15717;DHT22;7960;50.908;4.204;2023-02-26T02:36:13;1.00;99.90
15717;DHT22;7960;50.908;4.204;2023-02-26T02:38:44;1.00;99.90
15717;DHT22;7960;50.908;4.204;2023-02-26T02:41:17;1.10;99.90
15717;DHT22;7960;50.908;4.204;2023-02-26T02:43:46;1.10;99.90
15717;DHT22;7960;50.908;4.204;2023-02-26T02:46:18;1.10;99.90
15717;DHT22;7960;50.908;4.204;2023-02-26T02:48:52;1.10;99.90
15717;DHT22;7960;50.908;4.204;2023-02-26T02:51:23;1.10;99.90
15717;DHT22;7960;50.908;4.204;2023-02-26T02:53:54;1.10;99.90
15717;DHT22;7960;50.908;4.204;2023-02-26T02:56:24;1.10;99.90
15717;DHT22;7960;50.908;4.204;2023-02-26T02:59:08;1.10;99.90
15717;DHT22;7960;50.908;4.204;2023-02-26T03:01:38;1.10;99.90
15717;DHT22;7960;50.908;4.204;2023-02-26T03:04:08;1.00;99.90
15717;DHT22;7960;50.908;4.204;2023-02-26T03:06:36;1.00;99.90
15717;DHT22;7960;50.908;4.204;2023-02-26T03:09:05;1.00;99.90
15717;DHT22;7960;50.908;4.204;2023-02-26T03:11:32;1.00;99.90
15717;DHT22;7960;50.908;4.204;2023-02-26T03:13:59;1.20;99.90
15717;DHT22;7960;50.908;4.204;2023-02-26T03:16:42;1.10;99.90
15717;DHT22;7960;50.908;4.204;2023-02-26T03:19:17;1.20;99.90
15717;DHT22;7960;50.908;4.204;2023-02-26T03:21:52;1.10;99.90
15717;DHT22;7960;50.908;4.204;2023-02-26T03:24:27;1.10;99.90
15717;DHT22;7960;50.908;4.204;2023-02-26T03:26:58;1.20;99.90
15717;DHT22;7960;50.908;4.204;2023-02-26T03:29:32;1.20;99.90
15717;DHT22;7960;50.908;4.204;2023-02-26T03:32:06;1.20;99.90
15717;DHT22;7960;50.908;4.204;2023-02-26T03:34:39;1.20;99.90
15717;DHT22;7960;50.908;4.204;2023-02-26T03:37:12;1.20;99.90
15717;DHT22;7960;50.908;4.204;2023-02-26T03:39:44;1.20;99.90
15717;DHT22;7960;50.908;4.204;2023-02-26T03:42:25;1.30;99.90
15717;DHT22;7960;50.908;4.204;2023-02-26T03:44:56;1.30;99.90
15717;DHT22;7960;50.908;4.204;2023-02-26T03:47:25;1.30;99.90
15717;DHT22;7960;50.908;4.204;2023-02-26T03:49:56;1.30;99.90
15717;DHT22;7960;50.908;4.204;2023-02-26T03:52:27;1.20;99.90
15717;DHT22;7960;50.908;4.204;2023-02-26T03:54:58;1.30;99.90
15717;DHT22;7960;50.908;4.204;2023-02-26T03:57:26;1.30;99.90
15717;DHT22;7960;50.908;4.204;2023-02-26T03:59:53;1.30;99.90
15717;DHT22;7960;50.908;4.204;2023-02-26T04:02:27;1.20;99.90
15717;DHT22;7960;50.908;4.204;2023-02-26T04:04:59;1.30;99.90
15717;DHT22;7960;50.908;4.204;2023-02-26T04:07:27;1.30;99.90
15717;DHT22;7960;50.908;4.204;2023-02-26T04:09:55;1.20;99.90
15717;DHT22;7960;50.908;4.204;2023-02-26T04:12:23;1.10;99.90
15717;DHT22;7960;50.908;4.204;2023-02-26T04:14:50;1.10;99.90
15717;DHT22;7960;50.908;4.204;2023-02-26T04:17:17;1.20;99.90
15717;DHT22;7960;50.908;4.204;2023-02-26T04:19:46;1.10;99.90
15717;DHT22;7960;50.908;4.204;2023-02-26T04:22:13;1.20;99.90
15717;DHT22;7960;50.908;4.204;2023-02-26T04:24:39;1.10;99.90
15717;DHT22;7960;50.908;4.204;2023-02-26T04:27:06;1.20;99.90
15717;DHT22;7960;50.908;4.204;2023-02-26T04:29:33;1.00;99.90
15717;DHT22;7960;50.908;4.204;2023-02-26T04:32:00;1.00;99.90
15717;DHT22;7960;50.908;4.204;2023-02-26T04:34:27;1.00;99.90
15717;DHT22;7960;50.908;4.204;2023-02-26T04:36:55;1.00;99.90
15717;DHT22;7960;50.908;4.204;2023-02-26T04:39:22;1.00;99.90
15717;DHT22;7960;50.908;4.204;2023-02-26T04:41:49;1.00;99.90
15717;DHT22;7960;50.908;4.204;2023-02-26T04:44:15;1.00;99.90
15717;DHT22;7960;50.908;4.204;2023-02-26T04:46:42;1.00;99.90
15717;DHT22;7960;50.908;4.204;2023-02-26T04:49:09;1.00;99.90
15717;DHT22;7960;50.908;4.204;2023-02-26T04:51:36;1.00;99.90
15717;DHT22;7960;50.908;4.204;2023-02-26T04:54:04;1.00;99.90
15717;DHT22;7960;50.908;4.204;2023-02-26T04:56:31;0.90;99.90
15717;DHT22;7960;50.908;4.204;2023-02-26T04:58:58;0.90;99.90
15717;DHT22;7960;50.908;4.204;2023-02-26T05:01:25;0.80;99.90
15717;DHT22;7960;50.908;4.204;2023-02-26T05:03:52;0.80;99.90
15717;DHT22;7960;50.908;4.204;2023-02-26T05:06:18;0.80;99.90
15717;DHT22;7960;50.908;4.204;2023-02-26T05:08:45;0.70;99.90
15717;DHT22;7960;50.908;4.204;2023-02-26T05:11:14;0.70;99.90
15717;DHT22;7960;50.908;4.204;2023-02-26T05:13:40;0.70;99.90
15717;DHT22;7960;50.908;4.204;2023-02-26T05:16:08;0.70;99.90
15717;DHT22;7960;50.908;4.204;2023-02-26T05:18:34;0.60;99.90
15717;DHT22;7960;50.908;4.204;2023-02-26T05:21:02;0.70;99.90
15717;DHT22;7960;50.908;4.204;2023-02-26T05:23:30;0.70;99.90
15717;DHT22;7960;50.908;4.204;2023-02-26T05:25:57;0.60;99.90
15717;DHT22;7960;50.908;4.204;2023-02-26T05:28:26;0.60;99.90
15717;DHT22;7960;50.908;4.204;2023-02-26T05:30:54;0.50;99.90
15717;DHT22;7960;50.908;4.204;2023-02-26T05:33:21;0.50;99.90
15717;DHT22;7960;50.908;4.204;2023-02-26T05:35:48;0.60;99.90
15717;DHT22;7960;50.908;4.204;2023-02-26T05:38:15;0.50;99.90
15717;DHT22;7960;50.908;4.204;2023-02-26T05:40:42;0.50;99.90
15717;DHT22;7960;50.908;4.204;2023-02-26T05:43:08;0.40;99.90
15717;DHT22;7960;50.908;4.204;2023-02-26T05:45:37;0.50;99.90
15717;DHT22;7960;50.908;4.204;2023-02-26T05:48:04;0.50;99.90
15717;DHT22;7960;50.908;4.204;2023-02-26T05:50:30;0.50;99.90
15717;DHT22;7960;50.908;4.204;2023-02-26T05:52:57;0.40;99.90
15717;DHT22;7960;50.908;4.204;2023-02-26T05:55:24;0.40;99.90
15717;DHT22;7960;50.908;4.204;2023-02-26T05:57:51;0.50;99.90
15717;DHT22;7960;50.908;4.204;2023-02-26T06:00:18;0.40;99.90
15717;DHT22;7960;50.908;4.204;2023-02-26T06:02:48;0.40;99.90
15717;DHT22;7960;50.908;4.204;2023-02-26T06:05:15;0.30;99.90
15717;DHT22;7960;50.908;4.204;2023-02-26T06:07:42;0.30;99.90
15717;DHT22;7960;50.908;4.204;2023-02-26T06:10:10;0.30;99.90
15717;DHT22;7960;50.908;4.204;2023-02-26T06:12:38;0.30;99.90
15717;DHT22;7960;50.908;4.204;2023-02-26T06:15:06;0.30;99.90
15717;DHT22;7960;50.908;4.204;2023-02-26T06:17:34;0.30;99.90
15717;DHT22;7960;50.908;4.204;2023-02-26T06:20:03;0.30;99.90
15717;DHT22;7960;50.908;4.204;2023-02-26T06:22:30;0.30;99.90
15717;DHT22;7960;50.908;4.204;2023-02-26T06:24:57;0.30;99.90
15717;DHT22;7960;50.908;4.204;2023-02-26T06:27:24;0.20;99.90
15717;DHT22;7960;50.908;4.204;2023-02-26T06:29:51;0.20;99.90
15717;DHT22;7960;50.908;4.204;2023-02-26T06:32:18;0.20;99.90
15717;DHT22;7960;50.908;4.204;2023-02-26T06:34:45;0.20;99.90
15717;DHT22;7960;50.908;4.204;2023-02-26T06:37:13;0.20;99.90
15717;DHT22;7960;50.908;4.204;2023-02-26T06:39:40;0.20;99.90
15717;DHT22;7960;50.908;4.204;2023-02-26T06:42:07;0.20;99.90
15717;DHT22;7960;50.908;4.204;2023-02-26T06:44:33;0.20;99.90
15717;DHT22;7960;50.908;4.204;2023-02-26T06:47:01;0.10;99.90
15717;DHT22;7960;50.908;4.204;2023-02-26T06:49:27;0.00;99.90
15717;DHT22;7960;50.908;4.204;2023-02-26T06:51:54;0.00;99.90
15717;DHT22;7960;50.908;4.204;2023-02-26T06:54:22;0.10;99.90
15717;DHT22;7960;50.908;4.204;2023-02-26T06:56:49;0.00;99.90
15717;DHT22;7960;50.908;4.204;2023-02-26T06:59:16;0.10;99.90
15717;DHT22;7960;50.908;4.204;2023-02-26T07:01:43;0.20;99.90
15717;DHT22;7960;50.908;4.204;2023-02-26T07:04:10;0.20;99.90
15717;DHT22;7960;50.908;4.204;2023-02-26T07:06:37;0.20;99.90
15717;DHT22;7960;50.908;4.204;2023-02-26T07:09:04;0.30;99.90
15717;DHT22;7960;50.908;4.204;2023-02-26T07:11:32;0.30;99.90
15717;DHT22;7960;50.908;4.204;2023-02-26T07:13:59;0.30;99.90
15717;DHT22;7960;50.908;4.204;2023-02-26T07:16:26;0.30;99.90
15717;DHT22;7960;50.908;4.204;2023-02-26T07:18:53;0.30;99.90
15717;DHT22;7960;50.908;4.204;2023-02-26T07:21:19;0.30;99.90
15717;DHT22;7960;50.908;4.204;2023-02-26T07:23:46;0.30;99.90
15717;DHT22;7960;50.908;4.204;2023-02-26T07:26:13;0.30;99.90
15717;DHT22;7960;50.908;4.204;2023-02-26T07:28:43;0.30;99.90
15717;DHT22;7960;50.908;4.204;2023-02-26T07:31:10;0.40;99.90
15717;DHT22;7960;50.908;4.204;2023-02-26T07:33:37;0.40;99.90
15717;DHT22;7960;50.908;4.204;2023-02-26T07:36:04;0.40;99.90
15717;DHT22;7960;50.908;4.204;2023-02-26T07:38:31;0.50;99.90
15717;DHT22;7960;50.908;4.204;2023-02-26T07:40:58;0.50;99.90
15717;DHT22;7960;50.908;4.204;2023-02-26T07:43:25;0.50;99.90
15717;DHT22;7960;50.908;4.204;2023-02-26T07:45:53;0.50;99.90
15717;DHT22;7960;50.908;4.204;2023-02-26T07:48:20;0.60;99.90
15717;DHT22;7960;50.908;4.204;2023-02-26T07:50:49;0.60;99.90
15717;DHT22;7960;50.908;4.204;2023-02-26T07:53:16;0.70;99.90
15717;DHT22;7960;50.908;4.204;2023-02-26T07:55:43;0.70;99.90
15717;DHT22;7960;50.908;4.204;2023-02-26T07:58:10;0.70;99.90
15717;DHT22;7960;50.908;4.204;2023-02-26T08:00:37;0.70;99.90
15717;DHT22;7960;50.908;4.204;2023-02-26T08:03:05;0.80;99.90
15717;DHT22;7960;50.908;4.204;2023-02-26T08:05:32;0.90;99.90
15717;DHT22;7960;50.908;4.204;2023-02-26T08:07:59;0.90;99.90
15717;DHT22;7960;50.908;4.204;2023-02-26T08:10:26;1.00;99.90
15717;DHT22;7960;50.908;4.204;2023-02-26T08:12:53;1.00;99.90
15717;DHT22;7960;50.908;4.204;2023-02-26T08:15:20;1.10;99.90
15717;DHT22;7960;50.908;4.204;2023-02-26T08:17:47;1.10;99.90
15717;DHT22;7960;50.908;4.204;2023-02-26T08:20:15;1.10;99.90
15717;DHT22;7960;50.908;4.204;2023-02-26T08:22:42;1.20;99.90
15717;DHT22;7960;50.908;4.204;2023-02-26T08:25:09;1.30;99.90
15717;DHT22;7960;50.908;4.204;2023-02-26T08:27:37;1.30;99.90
15717;DHT22;7960;50.908;4.204;2023-02-26T08:30:05;1.40;99.90
15717;DHT22;7960;50.908;4.204;2023-02-26T08:32:33;1.50;99.90
15717;DHT22;7960;50.908;4.204;2023-02-26T08:35:00;1.60;99.90
15717;DHT22;7960;50.908;4.204;2023-02-26T08:37:28;1.60;99.90
15717;DHT22;7960;50.908;4.204;2023-02-26T08:39:55;1.70;99.90
15717;DHT22;7960;50.908;4.204;2023-02-26T08:42:22;1.70;99.90
15717;DHT22;7960;50.908;4.204;2023-02-26T08:44:49;1.80;99.90
15717;DHT22;7960;50.908;4.204;2023-02-26T08:47:15;1.90;99.90
15717;DHT22;7960;50.908;4.204;2023-02-26T08:49:42;2.00;99.90
15717;DHT22;7960;50.908;4.204;2023-02-26T08:52:09;2.00;99.90
15717;DHT22;7960;50.908;4.204;2023-02-26T08:54:37;2.20;99.90
15717;DHT22;7960;50.908;4.204;2023-02-26T08:57:04;2.20;99.90
15717;DHT22;7960;50.908;4.204;2023-02-26T08:59:31;2.40;99.90
15717;DHT22;7960;50.908;4.204;2023-02-26T09:01:58;2.60;99.90
15717;DHT22;7960;50.908;4.204;2023-02-26T09:04:25;2.70;99.50
15717;DHT22;7960;50.908;4.204;2023-02-26T09:06:56;2.90;99.00
15717;DHT22;7960;50.908;4.204;2023-02-26T09:09:23;2.90;98.60
15717;DHT22;7960;50.908;4.204;2023-02-26T09:11:51;2.90;98.10
15717;DHT22;7960;50.908;4.204;2023-02-26T09:14:19;3.00;97.70
15717;DHT22;7960;50.908;4.204;2023-02-26T09:16:46;3.00;97.70
15717;DHT22;7960;50.908;4.204;2023-02-26T09:19:13;3.20;97.60
15717;DHT22;7960;50.908;4.204;2023-02-26T09:21:39;3.40;97.50
15717;DHT22;7960;50.908;4.204;2023-02-26T09:24:07;3.40;96.80
15717;DHT22;7960;50.908;4.204;2023-02-26T09:26:34;3.40;96.40
15717;DHT22;7960;50.908;4.204;2023-02-26T09:29:04;3.70;96.60
15717;DHT22;7960;50.908;4.204;2023-02-26T09:31:31;3.70;96.30
15717;DHT22;7960;50.908;4.204;2023-02-26T09:33:58;3.70;95.40
15717;DHT22;7960;50.908;4.204;2023-02-26T09:36:25;3.90;94.90
15717;DHT22;7960;50.908;4.204;2023-02-26T09:38:51;3.90;94.60
15717;DHT22;7960;50.908;4.204;2023-02-26T09:41:25;4.00;94.80
15717;DHT22;7960;50.908;4.204;2023-02-26T09:44:08;4.30;94.70
15717;DHT22;7960;50.908;4.204;2023-02-26T09:46:43;4.20;94.10
15717;DHT22;7960;50.908;4.204;2023-02-26T09:49:19;4.30;93.90
15717;DHT22;7960;50.908;4.204;2023-02-26T09:51:50;4.40;94.00
15717;DHT22;7960;50.908;4.204;2023-02-26T09:54:20;4.50;93.80
15717;DHT22;7960;50.908;4.204;2023-02-26T09:56:50;4.60;93.60
15717;DHT22;7960;50.908;4.204;2023-02-26T09:59:18;4.60;93.60
15717;DHT22;7960;50.908;4.204;2023-02-26T10:01:50;4.40;93.30
15717;DHT22;7960;50.908;4.204;2023-02-26T10:04:25;4.60;93.40
15717;DHT22;7960;50.908;4.204;2023-02-26T10:07:02;4.90;93.60
15717;DHT22;7960;50.908;4.204;2023-02-26T10:09:42;5.10;93.20
15717;DHT22;7960;50.908;4.204;2023-02-26T10:12:16;5.10;92.80
15717;DHT22;7960;50.908;4.204;2023-02-26T10:14:51;5.00;92.80
15717;DHT22;7960;50.908;4.204;2023-02-26T10:17:23;4.90;92.60
15717;DHT22;7960;50.908;4.204;2023-02-26T10:19:56;5.30;92.90
15717;DHT22;7960;50.908;4.204;2023-02-26T10:22:30;5.30;92.40
15717;DHT22;7960;50.908;4.204;2023-02-26T10:25:02;5.10;91.80
15717;DHT22;7960;50.908;4.204;2023-02-26T10:27:44;5.30;91.80
15717;DHT22;7960;50.908;4.204;2023-02-26T10:30:21;5.70;91.40
15717;DHT22;7960;50.908;4.204;2023-02-26T10:32:57;5.60;90.50
15717;DHT22;7960;50.908;4.204;2023-02-26T10:35:27;5.60;90.80
15717;DHT22;7960;50.908;4.204;2023-02-26T10:37:56;5.60;90.50
15717;DHT22;7960;50.908;4.204;2023-02-26T10:40:29;5.60;90.30
15717;DHT22;7960;50.908;4.204;2023-02-26T10:43:03;5.30;90.10
15717;DHT22;7960;50.908;4.204;2023-02-26T10:45:42;5.50;90.60
15717;DHT22;7960;50.908;4.204;2023-02-26T10:48:23;5.60;90.30
15717;DHT22;7960;50.908;4.204;2023-02-26T10:50:55;5.60;89.00
15717;DHT22;7960;50.908;4.204;2023-02-26T10:53:24;5.40;88.80
15717;DHT22;7960;50.908;4.204;2023-02-26T10:55:55;5.40;90.00
15717;DHT22;7960;50.908;4.204;2023-02-26T10:58:26;5.40;90.20
15717;DHT22;7960;50.908;4.204;2023-02-26T11:00:55;5.30;89.40
15717;DHT22;7960;50.908;4.204;2023-02-26T11:03:29;5.50;89.20
15717;DHT22;7960;50.908;4.204;2023-02-26T11:05:57;5.10;87.40
15717;DHT22;7960;50.908;4.204;2023-02-26T11:08:26;4.70;87.00
15717;DHT22;7960;50.908;4.204;2023-02-26T11:10:54;4.20;87.70
15717;DHT22;7960;50.908;4.204;2023-02-26T11:13:23;4.20;89.20
15717;DHT22;7960;50.908;4.204;2023-02-26T11:15:52;4.30;90.00
15717;DHT22;7960;50.908;4.204;2023-02-26T11:18:23;4.50;90.30
15717;DHT22;7960;50.908;4.204;2023-02-26T11:20:54;4.50;89.50
15717;DHT22;7960;50.908;4.204;2023-02-26T11:23:25;4.60;89.60
15717;DHT22;7960;50.908;4.204;2023-02-26T11:25:53;4.50;88.00
15717;DHT22;7960;50.908;4.204;2023-02-26T11:28:30;4.30;87.10
15717;DHT22;7960;50.908;4.204;2023-02-26T11:31:00;4.10;86.90
15717;DHT22;7960;50.908;4.204;2023-02-26T11:33:35;4.30;87.90
15717;DHT22;7960;50.908;4.204;2023-02-26T11:36:07;4.20;89.40
15717;DHT22;7960;50.908;4.204;2023-02-26T11:38:35;4.40;89.50
15717;DHT22;7960;50.908;4.204;2023-02-26T11:41:03;4.30;87.30
15717;DHT22;7960;50.908;4.204;2023-02-26T11:43:35;4.70;87.90
15717;DHT22;7960;50.908;4.204;2023-02-26T11:46:04;5.10;86.70
15717;DHT22;7960;50.908;4.204;2023-02-26T11:48:38;5.20;86.20
15717;DHT22;7960;50.908;4.204;2023-02-26T11:51:06;5.00;85.30
15717;DHT22;7960;50.908;4.204;2023-02-26T11:53:36;4.80;85.10
15717;DHT22;7960;50.908;4.204;2023-02-26T11:56:08;5.00;85.60
15717;DHT22;7960;50.908;4.204;2023-02-26T11:58:39;5.20;85.20
15717;DHT22;7960;50.908;4.204;2023-02-26T12:01:09;5.60;84.80
15717;DHT22;7960;50.908;4.204;2023-02-26T12:03:42;6.10;84.30
15717;DHT22;7960;50.908;4.204;2023-02-26T12:06:15;6.50;83.00
15717;DHT22;7960;50.908;4.204;2023-02-26T12:08:43;6.40;81.40
15717;DHT22;7960;50.908;4.204;2023-02-26T12:11:35;5.80;79.00
15717;DHT22;7960;50.908;4.204;2023-02-26T12:14:25;5.60;80.40
15717;DHT22;7960;50.908;4.204;2023-02-26T12:17:04;5.30;80.80
15717;DHT22;7960;50.908;4.204;2023-02-26T12:19:40;5.40;82.60
15717;DHT22;7960;50.908;4.204;2023-02-26T12:22:32;5.80;82.40
15717;DHT22;7960;50.908;4.204;2023-02-26T12:25:21;6.40;83.60
15717;DHT22;7960;50.908;4.204;2023-02-26T12:28:13;6.80;82.20
15717;DHT22;7960;50.908;4.204;2023-02-26T12:31:03;7.40;81.50
15717;DHT22;7960;50.908;4.204;2023-02-26T12:33:50;7.50;80.50
15717;DHT22;7960;50.908;4.204;2023-02-26T12:36:28;7.20;79.60
15717;DHT22;7960;50.908;4.204;2023-02-26T12:39:09;7.10;79.20
15717;DHT22;7960;50.908;4.204;2023-02-26T12:42:01;6.80;79.20
15717;DHT22;7960;50.908;4.204;2023-02-26T12:44:52;6.80;79.50
15717;DHT22;7960;50.908;4.204;2023-02-26T12:47:34;7.20;80.00
15717;DHT22;7960;50.908;4.204;2023-02-26T12:53:16;7.50;81.60
15717;DHT22;7960;50.908;4.204;2023-02-26T12:55:55;7.60;77.30
15717;DHT22;7960;50.908;4.204;2023-02-26T12:58:44;7.90;76.40
15717;DHT22;7960;50.908;4.204;2023-02-26T13:01:37;8.10;72.40
15717;DHT22;7960;50.908;4.204;2023-02-26T13:04:29;8.30;71.20
15717;DHT22;7960;50.908;4.204;2023-02-26T13:07:08;8.20;69.80
15717;DHT22;7960;50.908;4.204;2023-02-26T13:09:48;8.10;71.30
15717;DHT22;7960;50.908;4.204;2023-02-26T13:12:35;8.60;72.40
15717;DHT22;7960;50.908;4.204;2023-02-26T13:18:13;9.00;70.60
15717;DHT22;7960;50.908;4.204;2023-02-26T13:20:54;9.20;68.10
15717;DHT22;7960;50.908;4.204;2023-02-26T13:23:28;9.10;66.30
15717;DHT22;7960;50.908;4.204;2023-02-26T13:26:00;9.20;67.10
15717;DHT22;7960;50.908;4.204;2023-02-26T13:28:36;9.40;66.50
15717;DHT22;7960;50.908;4.204;2023-02-26T13:31:08;9.30;64.10
15717;DHT22;7960;50.908;4.204;2023-02-26T13:33:38;8.90;64.40
15717;DHT22;7960;50.908;4.204;2023-02-26T13:36:06;9.20;65.30
15717;DHT22;7960;50.908;4.204;2023-02-26T13:38:44;8.90;65.00
15717;DHT22;7960;50.908;4.204;2023-02-26T13:41:18;8.80;64.80
15717;DHT22;7960;50.908;4.204;2023-02-26T13:44:08;8.70;64.40
15717;DHT22;7960;50.908;4.204;2023-02-26T13:46:51;8.80;64.00
15717;DHT22;7960;50.908;4.204;2023-02-26T13:49:24;8.70;62.20
15717;DHT22;7960;50.908;4.204;2023-02-26T13:51:56;9.00;62.20
15717;DHT22;7960;50.908;4.204;2023-02-26T13:54:34;9.20;61.50
15717;DHT22;7960;50.908;4.204;2023-02-26T13:57:22;9.20;61.10
15717;DHT22;7960;50.908;4.204;2023-02-26T13:59:58;9.60;60.80
15717;DHT22;7960;50.908;4.204;2023-02-26T14:02:40;10.00;58.20
15717;DHT22;7960;50.908;4.204;2023-02-26T14:05:28;10.10;56.50
15717;DHT22;7960;50.908;4.204;2023-02-26T14:08:20;10.20;56.50
15717;DHT22;7960;50.908;4.204;2023-02-26T14:10:55;9.90;55.90
15717;DHT22;7960;50.908;4.204;2023-02-26T14:13:35;9.90;55.90
15717;DHT22;7960;50.908;4.204;2023-02-26T14:16:11;9.40;54.60
15717;DHT22;7960;50.908;4.204;2023-02-26T14:18:42;9.30;55.20
15717;DHT22;7960;50.908;4.204;2023-02-26T14:21:38;10.00;55.50
15717;DHT22;7960;50.908;4.204;2023-02-26T14:24:13;10.80;54.40
15717;DHT22;7960;50.908;4.204;2023-02-26T14:26:45;11.10;53.30
15717;DHT22;7960;50.908;4.204;2023-02-26T14:29:19;11.40;53.10
15717;DHT22;7960;50.908;4.204;2023-02-26T14:31:55;12.00;52.90
15717;DHT22;7960;50.908;4.204;2023-02-26T14:34:28;12.20;51.50
15717;DHT22;7960;50.908;4.204;2023-02-26T14:36:58;12.20;51.80
15717;DHT22;7960;50.908;4.204;2023-02-26T14:39:29;12.40;51.10
15717;DHT22;7960;50.908;4.204;2023-02-26T14:42:01;12.90;51.20
15717;DHT22;7960;50.908;4.204;2023-02-26T14:44:35;12.30;49.70
15717;DHT22;7960;50.908;4.204;2023-02-26T14:47:03;11.30;48.20
15717;DHT22;7960;50.908;4.204;2023-02-26T14:49:32;11.20;49.60
15717;DHT22;7960;50.908;4.204;2023-02-26T14:52:14;11.30;50.70
15717;DHT22;7960;50.908;4.204;2023-02-26T14:54:58;11.00;50.40
15717;DHT22;7960;50.908;4.204;2023-02-26T14:57:32;11.00;50.50
15717;DHT22;7960;50.908;4.204;2023-02-26T15:00:25;11.00;49.70
15717;DHT22;7960;50.908;4.204;2023-02-26T15:03:41;11.10;50.60
15717;DHT22;7960;50.908;4.204;2023-02-26T15:06:25;10.90;50.30
15717;DHT22;7960;50.908;4.204;2023-02-26T15:09:06;10.70;50.20
15717;DHT22;7960;50.908;4.204;2023-02-26T15:12:01;10.90;51.60
15717;DHT22;7960;50.908;4.204;2023-02-26T15:14:53;10.60;50.70
15717;DHT22;7960;50.908;4.204;2023-02-26T15:17:39;10.40;51.30
15717;DHT22;7960;50.908;4.204;2023-02-26T15:20:16;10.60;51.50
15717;DHT22;7960;50.908;4.204;2023-02-26T15:22:59;10.50;52.00
15717;DHT22;7960;50.908;4.204;2023-02-26T15:25:32;10.70;52.40
15717;DHT22;7960;50.908;4.204;2023-02-26T15:28:00;10.60;52.40
15717;DHT22;7960;50.908;4.204;2023-02-26T15:30:30;10.10;52.70
15717;DHT22;7960;50.908;4.204;2023-02-26T15:32:59;9.20;53.90
15717;DHT22;7960;50.908;4.204;2023-02-26T15:35:29;8.50;55.80
15717;DHT22;7960;50.908;4.204;2023-02-26T15:37:59;8.30;58.00
15717;DHT22;7960;50.908;4.204;2023-02-26T15:40:28;9.00;59.30
15717;DHT22;7960;50.908;4.204;2023-02-26T15:42:56;8.80;58.00
15717;DHT22;7960;50.908;4.204;2023-02-26T15:45:27;8.50;58.10
15717;DHT22;7960;50.908;4.204;2023-02-26T15:48:01;8.20;58.60
15717;DHT22;7960;50.908;4.204;2023-02-26T15:50:32;7.80;59.50
15717;DHT22;7960;50.908;4.204;2023-02-26T15:53:02;7.50;60.10
15717;DHT22;7960;50.908;4.204;2023-02-26T15:55:33;7.50;61.00
15717;DHT22;7960;50.908;4.204;2023-02-26T15:58:03;7.20;61.70
15717;DHT22;7960;50.908;4.204;2023-02-26T16:00:32;7.00;62.90
15717;DHT22;7960;50.908;4.204;2023-02-26T16:03:00;7.00;63.60
15717;DHT22;7960;50.908;4.204;2023-02-26T16:05:29;7.10;64.30
15717;DHT22;7960;50.908;4.204;2023-02-26T16:07:56;7.40;64.60
15717;DHT22;7960;50.908;4.204;2023-02-26T16:10:30;7.50;64.20
15717;DHT22;7960;50.908;4.204;2023-02-26T16:12:58;7.50;64.20
15717;DHT22;7960;50.908;4.204;2023-02-26T16:15:28;7.60;64.40
15717;DHT22;7960;50.908;4.204;2023-02-26T16:17:57;7.40;64.70
15717;DHT22;7960;50.908;4.204;2023-02-26T16:20:28;7.10;64.70
15717;DHT22;7960;50.908;4.204;2023-02-26T16:23:01;6.80;65.90
15717;DHT22;7960;50.908;4.204;2023-02-26T16:25:32;6.50;66.40
15717;DHT22;7960;50.908;4.204;2023-02-26T16:28:02;6.40;67.50
15717;DHT22;7960;50.908;4.204;2023-02-26T16:30:32;6.20;68.80
15717;DHT22;7960;50.908;4.204;2023-02-26T16:33:01;6.20;69.30
15717;DHT22;7960;50.908;4.204;2023-02-26T16:35:35;6.10;70.00